CEST,Max TemperatureF,Mean TemperatureF,Min TemperatureF,Max Dew PointF,MeanDew PointF,Min DewpointF,Max Humidity, Mean Humidity, Min Humidity, Max Sea Level PressureIn, Mean Sea Level PressureIn, Min Sea Level PressureIn, Max VisibilityMiles, Mean VisibilityMiles, Min VisibilityMiles, Max Wind SpeedMPH, Mean Wind SpeedMPH, Max Gust SpeedMPH,PrecipitationIn, CloudCover, Events, WindDirDegrees
2013-3-1,59,52,45,59,50,46,100,83,65,30.14,30.01,29.86,7,6,6,25,13,28,0.00,6,,91
2013-3-2,60,52,42,54,47,39,100,82,34,29.83,29.71,29.65,9,6,2,25,16,,0.08,5,Rain-Thunderstorm,271
2013-3-3,63,50,38,53,43,37,100,79,33,30.08,29.98,29.86,9,6,6,10,4,,0.00,3,,192
2013-3-4,66,54,41,52,46,37,100,84,30,30.19,30.11,30.06,10,7,6,14,5,,0.00,3,,300
2013-3-5,59,50,42,54,48,43,100,91,65,30.25,30.20,30.15,10,5,2,17,8,,0.00,4,,110
2013-3-6,57,54,52,57,55,50,100,98,86,30.14,29.94,29.80,9,3,1,23,16,30,0.63,6,Rain,88
2013-3-7,69,60,51,61,56,52,100,96,68,29.86,29.80,29.77,6,2,0,14,4,,0.31,6,Fog-Rain-Thunderstorm,294
2013-3-8,68,58,48,61,55,50,100,90,67,29.90,29.84,29.80,7,6,5,20,9,,0.02,5,Rain,279
2013-3-9,74,62,51,59,52,47,100,76,34,29.92,29.84,29.77,12,7,2,23,12,34,0.04,5,Rain,279
2013-3-10,71,62,53,57,55,50,100,84,44,29.86,29.77,29.68,9,6,6,12,6,,0.00,3,Rain,299
2013-3-11,66,57,48,54,49,45,100,78,39,29.77,29.73,29.68,12,7,6,18,8,,0.00,4,,262
2013-3-12,64,56,48,54,49,43,100,78,45,29.78,29.73,29.71,6,6,4,18,10,,0.01,4,Rain,268
2013-3-13,59,53,47,57,52,48,100,95,82,29.71,29.57,29.42,7,5,2,9,6,,0.12,6,Rain,294
2013-3-14,57,52,46,54,46,34,100,79,53,29.50,29.33,29.24,11,6,2,37,15,41,0.04,4,Rain,266
2013-3-15,54,46,37,43,38,34,100,71,48,29.83,29.62,29.50,12,6,5,25,16,,0.00,3,Rain,274
2013-3-16,60,50,40,46,41,32,100,79,30,30.15,30.02,29.86,16,7,6,13,9,,0.00,4,,300
2013-3-17,60,48,37,50,44,37,100,85,50,30.16,30.08,30.01,10,7,6,9,6,,0.00,4,,287
2013-3-18,64,54,45,59,53,45,100,96,81,29.99,29.85,29.74,7,4,2,16,5,,0.00,5,Rain,338
2013-3-19,71,58,45,52,46,36,100,77,21,29.85,29.80,29.77,16,7,0,15,7,,0.00,4,Fog,327
2013-3-20,64,53,42,57,51,45,100,92,59,29.83,29.77,29.71,7,6,5,12,5,,0.01,3,,86
2013-3-21,65,57,49,54,40,25,100,55,17,29.96,29.83,29.71,12,7,6,29,13,40,0.00,2,,287
2013-3-22,70,57,44,52,41,30,100,62,20,29.97,29.94,29.89,11,7,6,17,11,,0.00,1,,302
2013-3-23,63,50,36,57,49,36,100,88,52,29.99,29.93,29.86,10,6,6,15,8,,0.00,2,,36
2013-3-24,64,55,46,59,56,46,100,95,76,29.85,29.69,29.53,6,5,2,23,10,33,0.00,4,,65
2013-3-25,64,58,53,61,52,45,100,79,44,29.62,29.52,29.44,12,5,2,29,13,40,0.00,4,Rain,270
2013-3-26,66,58,50,55,49,45,94,71,41,29.71,29.67,29.62,12,7,6,28,17,36,0.00,3,,274
2013-3-27,71,62,52,57,54,46,100,79,41,29.84,29.74,29.65,7,6,6,17,10,,0.00,3,,264
2013-3-28,75,60,46,59,54,48,100,82,31,29.92,29.87,29.83,9,6,6,18,7,,0.00,3,,114
2013-3-29,72,61,50,57,52,46,100,79,37,29.90,29.86,29.80,11,6,4,14,6,,0.00,2,,81
2013-3-30,77,62,47,55,52,48,100,72,27,29.85,29.73,29.65,11,6,6,20,7,,0.01,4,Rain,283
2013-3-31,72,62,52,57,49,39,100,68,23,29.83,29.76,29.71,11,7,6,23,15,,0.00,3,,265
2013-4-1,,,,,,,,,,,,,,,,,,,,,,